Sedbergh, United Kingdom
Current Conditions -  °F | °C
As of 10:50 PM on Friday 28 Nov 2014 (Local Time) from EGXE Reporting Station
Haze Haze  
Wind Chill:   Ceiling: 700
Heat Index:   Visibility: 2mi
Dew Point:   Wind: 3mph
Humidity: 93%   Direction: 60°ENE
Pressure: 29.85"   Gusts: NA
Location:  54.32°N, 2.53°W
Report Text: EGXE 282250Z AUTO 06003KT 3200 BR OVC007/// 09/08 Q1011 REDZ
Loading
Personal Weather Stations






























Interactive Weather Map New forecast layout! Learn more

10-Day Weather Forecast

Advertisements
Track Severe Weather on mobile